Time;durP1;ratioP1;P1;durP2;ratioP2;P2;SDS_P1;SDS_P2;PMS_P1;PMS_P2;Temp;Humidity;BMP_temperature;BMP_pressure;BME280_temperature;BME280_humidity;BME280_pressure;Samples;Min_cycle;Max_cycle;Signal;HPM_P1;HPM_P2
2023/04/09 00:01:57;;;;;;;30.52;15.82;;;;;;;17.75;42.46;102279.00;4932766;28;20503;-62
2023/04/09 00:04:22;;;;;;;31.58;15.70;;;;;;;17.75;40.78;102279.88;4934358;29;20024;-61
2023/04/09 00:06:48;;;;;;;35.38;16.35;;;;;;;17.75;41.82;102274.47;4934196;28;20047;-62
2023/04/09 00:09:13;;;;;;;31.58;13.77;;;;;;;17.73;41.87;102273.72;4948738;28;20036;-61
2023/04/09 00:11:39;;;;;;;30.83;15.40;;;;;;;17.70;42.01;102274.00;4932463;28;20119;-62
2023/04/09 00:14:04;;;;;;;35.75;15.05;;;;;;;17.71;42.38;102281.13;4932439;28;20027;-62
2023/04/09 00:16:30;;;;;;;31.83;15.48;;;;;;;17.68;40.94;102273.28;4932463;28;20059;-62
2023/04/09 00:18:55;;;;;;;31.90;16.73;;;;;;;17.67;41.49;102263.44;4948748;29;20145;-61
2023/04/09 00:21:21;;;;;;;35.25;14.93;;;;;;;17.66;42.20;102269.88;4948423;28;20038;-62
2023/04/09 00:23:46;;;;;;;32.25;15.35;;;;;;;17.64;41.70;102274.56;4948532;28;20035;-62
2023/04/09 00:26:11;;;;;;;30.42;15.68;;;;;;;17.60;42.02;102267.72;4932359;28;20139;-61
2023/04/09 00:28:37;;;;;;;33.67;15.88;;;;;;;17.60;41.68;102273.13;4948285;28;20115;-61
2023/04/09 00:31:02;;;;;;;29.23;14.57;;;;;;;17.57;41.51;102261.69;4948969;29;20032;-62
2023/04/09 00:33:28;;;;;;;28.83;15.40;;;;;;;17.57;41.50;102259.84;4932481;28;20044;-62
2023/04/09 00:35:53;;;;;;;28.90;14.13;;;;;;;17.52;41.90;102259.38;4933864;28;20044;-62
2023/04/09 00:38:18;;;;;;;28.00;14.13;;;;;;;17.52;42.13;102259.38;4948245;28;20126;-61
2023/04/09 00:40:48;;;;;;;27.40;13.68;;;;;;;17.49;41.74;102259.66;4932162;28;20043;-61
2023/04/09 00:43:13;;;;;;;26.80;13.55;;;;;;;17.45;42.18;102259.06;4948528;29;20399;-62
2023/04/09 00:45:39;;;;;;;27.52;14.35;;;;;;;17.41;41.68;102260.38;4932032;28;20028;-62
2023/04/09 00:48:05;;;;;;;28.50;14.88;;;;;;;17.38;41.52;102257.06;4932193;28;20038;-62
2023/04/09 00:50:30;;;;;;;26.55;13.13;;;;;;;17.31;42.09;102247.75;4933365;28;20040;-61
2023/04/09 00:52:56;;;;;;;32.10;14.43;;;;;;;17.26;40.88;102252.75;4934423;28;20039;-61
2023/04/09 00:55:21;;;;;;;27.52;12.93;;;;;;;17.19;41.62;102249.75;4935186;29;20055;-62
2023/04/09 00:57:47;;;;;;;22.80;12.15;;;;;;;17.11;41.92;102249.59;4936535;28;20044;-62
2023/04/09 01:00:13;;;;;;;30.58;13.82;;;;;;;17.03;42.32;102251.25;4934263;28;20048;-62
2023/04/09 01:02:41;;;;;;;24.98;12.45;;;;;;;16.96;42.44;102253.63;4947980;28;20119;-62
2023/04/09 01:05:07;;;;;;;27.10;13.10;;;;;;;16.88;41.20;102248.91;4947670;28;20032;-61
2023/04/09 01:07:58;;;;;;;32.53;13.82;;;;;;;16.80;42.75;102247.88;4931968;28;20039;-61
2023/04/09 01:10:27;;;;;;;29.55;13.95;;;;;;;16.68;41.17;102241.66;4948243;29;20024;-61
2023/04/09 01:13:07;;;;;;;28.17;13.38;;;;;;;16.62;42.29;102242.19;4933177;28;20499;-62
2023/04/09 01:15:37;;;;;;;24.27;12.57;;;;;;;16.56;42.27;102240.03;4931718;28;20040;-61
2023/04/09 01:18:14;;;;;;;29.92;13.57;;;;;;;16.52;42.33;102235.84;4931677;28;20089;-62
2023/04/09 01:20:45;;;;;;;25.88;11.77;;;;;;;16.46;43.04;102236.38;4931714;28;20047;-62
2023/04/09 01:23:46;;;;;;;26.23;12.85;;;;;;;16.43;41.44;102239.34;4931645;28;20111;-61
2023/04/09 01:26:36;;;;;;;28.02;13.23;;;;;;;16.39;42.27;102229.78;4940026;28;20035;-62
2023/04/09 01:29:02;;;;;;;27.70;12.65;;;;;;;16.35;42.70;102238.28;4939132;28;20032;-62
2023/04/09 01:31:30;;;;;;;25.77;12.60;;;;;;;16.29;43.12;102234.28;4938395;29;20027;-61
2023/04/09 01:33:56;;;;;;;31.85;13.80;;;;;;;16.24;42.86;102231.09;4938043;29;20106;-61
2023/04/09 01:36:23;;;;;;;24.35;12.60;;;;;;;16.20;42.79;102224.22;4953891;28;20044;-62
2023/04/09 01:38:50;;;;;;;25.55;12.95;;;;;;;16.12;41.66;102215.94;4937952;28;20392;-61
2023/04/09 01:41:18;;;;;;;23.10;11.82;;;;;;;16.10;41.46;102217.91;4937966;28;20028;-62
2023/04/09 01:43:44;;;;;;;32.85;13.35;;;;;;;16.08;42.21;102219.91;4954377;28;20027;-61
2023/04/09 01:46:11;;;;;;;26.10;13.25;;;;;;;16.04;41.62;102224.69;4954135;29;20028;-61
2023/04/09 01:48:36;;;;;;;31.05;14.20;;;;;;;16.01;43.37;102226.78;4938935;28;20174;-61
2023/04/09 01:51:04;;;;;;;28.98;13.93;;;;;;;15.97;42.42;102214.53;4937684;28;20051;-61
2023/04/09 01:53:30;;;;;;;32.97;15.88;;;;;;;15.97;43.31;102212.66;4953470;28;20105;-63
2023/04/09 01:55:56;;;;;;;31.38;14.18;;;;;;;15.96;42.65;102216.38;4953307;28;20446;-63
2023/04/09 01:58:23;;;;;;;29.52;13.55;;;;;;;15.93;41.99;102210.38;4953867;29;20036;-61
2023/04/09 02:00:51;;;;;;;27.45;13.98;;;;;;;15.90;43.65;102211.50;4953395;28;20419;-62
2023/04/09 02:03:22;;;;;;;32.33;15.02;;;;;;;15.88;43.54;102213.47;4953640;28;20110;-61
2023/04/09 02:06:13;;;;;;;27.08;14.00;;;;;;;15.88;43.47;102210.78;4937520;28;20042;-62
2023/04/09 02:08:42;;;;;;;32.33;13.80;;;;;;;15.87;43.05;102210.88;4921856;28;20036;-62
2023/04/09 02:11:09;;;;;;;27.98;13.52;;;;;;;15.84;42.60;102208.44;4938012;28;20110;-62
2023/04/09 02:13:36;;;;;;;32.67;15.38;;;;;;;15.85;42.04;102219.13;4957560;28;20027;-62
2023/04/09 02:16:02;;;;;;;31.42;14.70;;;;;;;15.85;42.88;102221.84;4954802;29;20035;-62
2023/04/09 02:18:29;;;;;;;27.08;13.35;;;;;;;15.82;42.80;102208.59;4953608;28;20454;-62
2023/04/09 02:20:56;;;;;;;26.15;13.65;;;;;;;15.81;42.14;102211.41;4937419;28;20032;-62
2023/04/09 02:23:22;;;;;;;27.08;13.60;;;;;;;15.79;42.14;102207.97;4921760;28;20403;-62
2023/04/09 02:25:48;;;;;;;25.60;12.75;;;;;;;15.74;42.09;102208.38;4937079;28;20034;-61
2023/04/09 02:28:13;;;;;;;29.05;14.55;;;;;;;15.77;42.71;102208.13;4953524;29;20490;-62
2023/04/09 02:30:39;;;;;;;30.17;14.52;;;;;;;15.73;42.90;102210.22;4953275;28;20077;-62
2023/04/09 02:33:05;;;;;;;27.75;13.35;;;;;;;15.69;42.72;102200.63;4953106;28;20093;-62
2023/04/09 02:35:30;;;;;;;28.27;14.25;;;;;;;15.69;43.03;102206.03;4951955;28;20097;-62
2023/04/09 02:37:56;;;;;;;27.40;13.38;;;;;;;15.65;43.26;102201.91;4949406;28;20419;-62
2023/04/09 02:40:21;;;;;;;28.08;13.55;;;;;;;15.63;42.54;102209.25;4934306;29;20028;-62
2023/04/09 02:42:47;;;;;;;27.42;13.60;;;;;;;15.59;43.23;102201.53;4935145;28;20051;-62
2023/04/09 02:45:12;;;;;;;27.00;12.82;;;;;;;15.54;43.18;102201.94;4949778;28;20040;-62
2023/04/09 02:47:37;;;;;;;27.13;12.70;;;;;;;15.47;42.34;102202.53;4949840;28;20042;-61
2023/04/09 02:50:04;;;;;;;22.75;11.10;;;;;;;15.40;42.43;102204.03;4949795;28;20028;-62
2023/04/09 02:52:29;;;;;;;23.75;11.18;;;;;;;15.30;42.84;102203.91;4965946;28;20023;-62
2023/04/09 02:54:55;;;;;;;24.88;12.23;;;;;;;15.22;42.92;102198.28;4937195;29;20157;-62
2023/04/09 02:57:20;;;;;;;21.02;11.48;;;;;;;15.15;43.21;102197.09;4952755;28;20035;-62
2023/04/09 02:59:46;;;;;;;24.88;12.38;;;;;;;15.07;43.10;102196.84;4936726;28;20043;-62
2023/04/09 03:02:11;;;;;;;24.23;12.52;;;;;;;15.03;43.76;102198.06;4936774;28;20566;-62
2023/04/09 03:04:37;;;;;;;27.33;11.52;;;;;;;14.99;43.71;102202.03;4953903;28;20023;-61
2023/04/09 03:07:03;;;;;;;27.20;12.27;;;;;;;14.95;43.31;102203.22;4937131;28;20376;-62
2023/04/09 03:09:29;;;;;;;24.52;11.48;;;;;;;14.93;42.26;102199.81;4952715;28;20036;-62
2023/04/09 03:11:56;;;;;;;24.13;12.32;;;;;;;14.89;42.84;102201.03;4933796;28;20499;-61
2023/04/09 03:14:24;;;;;;;26.17;12.23;;;;;;;14.83;43.75;102194.28;4933516;29;20066;-62
2023/04/09 03:16:49;;;;;;;22.85;11.90;;;;;;;14.81;42.56;102198.09;4934705;28;20414;-62
2023/04/09 03:19:15;;;;;;;21.92;12.05;;;;;;;14.79;42.98;102195.53;4933876;28;20483;-62
2023/04/09 03:21:41;;;;;;;27.20;13.30;;;;;;;14.80;42.82;102199.06;4933457;29;20027;-62
2023/04/09 03:24:07;;;;;;;29.10;13.57;;;;;;;14.81;43.40;102198.09;4917767;29;20109;-62
2023/04/09 03:26:35;;;;;;;26.88;14.00;;;;;;;14.82;43.60;102199.81;4934872;28;20110;-62
2023/04/09 03:29:04;;;;;;;24.15;13.65;;;;;;;14.87;43.17;102197.59;4934598;28;20032;-62
2023/04/09 03:31:30;;;;;;;26.70;13.65;;;;;;;14.90;43.99;102202.75;4934192;28;20031;-62
2023/04/09 03:33:55;;;;;;;30.40;15.02;;;;;;;14.91;43.72;102199.06;4917871;29;20098;-62
2023/04/09 03:36:21;;;;;;;29.08;15.13;;;;;;;14.89;43.96;102190.22;4933245;28;20048;-61
2023/04/09 03:38:46;;;;;;;23.33;11.48;;;;;;;14.93;43.70;102187.19;4934307;28;20035;-62
2023/04/09 03:41:12;;;;;;;20.52;9.98;;;;;;;14.93;43.21;102186.31;4933423;28;20118;-61
2023/04/09 03:43:37;;;;;;;15.82;8.35;;;;;;;14.85;43.17;102178.81;4933319;28;20042;-61
2023/04/09 03:46:16;;;;;;;19.25;9.75;;;;;;;14.82;42.79;102189.03;4933378;28;20027;-61
2023/04/09 03:48:41;;;;;;;18.65;9.63;;;;;;;14.76;42.63;102189.50;4932604;29;20024;-61
2023/04/09 03:51:13;;;;;;;20.60;10.63;;;;;;;14.72;43.57;102193.41;4934457;28;20032;-62
2023/04/09 03:53:42;;;;;;;22.63;11.43;;;;;;;14.69;42.73;102183.72;4917324;28;20036;-63
2023/04/09 03:56:08;;;;;;;25.73;11.13;;;;;;;14.68;43.99;102187.44;4917024;28;20067;-64
2023/04/09 03:58:33;;;;;;;22.83;11.48;;;;;;;14.69;42.89;102182.88;4933100;28;20079;-64
2023/04/09 04:00:59;;;;;;;26.60;11.85;;;;;;;14.69;43.73;102188.25;4933359;28;20028;-64
2023/04/09 04:03:24;;;;;;;19.65;10.65;;;;;;;14.68;42.62;102195.53;4932807;28;20032;-61
2023/04/09 04:05:50;;;;;;;20.25;9.98;;;;;;;14.68;44.30;102186.56;4901321;28;20035;-61
2023/04/09 04:08:16;;;;;;;18.10;10.55;;;;;;;14.64;43.26;102191.34;4934684;28;20145;-61
2023/04/09 04:10:41;;;;;;;20.63;10.80;;;;;;;14.63;43.36;102199.56;4932639;28;20059;-64
2023/04/09 04:13:09;;;;;;;21.90;10.18;;;;;;;14.57;43.97;102195.53;4917118;28;20055;-61
2023/04/09 04:15:40;;;;;;;17.95;10.02;;;;;;;14.52;43.99;102189.59;4932506;28;20039;-64
2023/04/09 04:18:05;;;;;;;20.75;10.15;;;;;;;14.49;43.37;102196.09;4948360;28;20043;-61
2023/04/09 04:20:34;;;;;;;22.60;11.85;;;;;;;14.47;43.20;102194.50;4932563;29;20036;-64
2023/04/09 04:22:59;;;;;;;20.45;10.95;;;;;;;14.43;42.82;102193.88;4932522;28;20039;-62
2023/04/09 04:25:25;;;;;;;26.85;11.73;;;;;;;14.40;43.82;102182.50;4939416;28;20035;-61
2023/04/09 04:27:50;;;;;;;23.02;11.32;;;;;;;14.35;43.23;102190.94;4933740;28;20055;-61
2023/04/09 04:30:15;;;;;;;24.73;11.75;;;;;;;14.35;42.90;102188.25;4932657;28;20400;-64
2023/04/09 04:32:41;;;;;;;23.58;11.63;;;;;;;14.36;42.98;102197.19;4932326;28;20065;-63
2023/04/09 04:35:07;;;;;;;21.73;10.23;;;;;;;14.32;44.56;102191.16;4916466;28;20086;-64
2023/04/09 04:37:32;;;;;;;20.23;11.82;;;;;;;14.30;43.28;102194.94;4916607;28;20447;-64
2023/04/09 04:40:00;;;;;;;21.67;10.50;;;;;;;14.25;44.30;102192.59;4919840;29;20042;-64
2023/04/09 04:42:26;;;;;;;22.35;11.65;;;;;;;14.22;43.55;102184.75;4916077;29;20122;-64
2023/04/09 04:44:51;;;;;;;25.95;11.32;;;;;;;14.21;43.22;102193.81;4933394;28;20618;-63
2023/04/09 04:47:18;;;;;;;21.67;11.68;;;;;;;14.19;43.12;102201.16;4916281;28;20050;-64
2023/04/09 04:49:43;;;;;;;26.23;11.95;;;;;;;14.14;44.40;102197.97;4916423;28;20054;-63
2023/04/09 04:52:09;;;;;;;26.80;12.38;;;;;;;14.10;43.89;102196.47;4916887;29;20063;-64
2023/04/09 04:54:34;;;;;;;21.67;10.88;;;;;;;14.09;43.83;102200.16;4931718;28;20131;-64
2023/04/09 04:57:00;;;;;;;21.25;11.35;;;;;;;14.06;43.72;102199.53;4931887;28;20043;-64
2023/04/09 04:59:25;;;;;;;28.70;13.18;;;;;;;13.98;43.05;102192.91;4946914;28;20086;-64
2023/04/09 05:01:51;;;;;;;25.42;12.65;;;;;;;14.01;42.99;102195.34;4931869;28;20032;-64
2023/04/09 05:04:16;;;;;;;24.73;12.52;;;;;;;13.98;43.31;102198.31;4932339;29;20067;-61
2023/04/09 05:06:42;;;;;;;23.52;12.63;;;;;;;13.97;42.96;102195.72;4931811;28;20039;-61
2023/04/09 05:09:07;;;;;;;28.13;11.88;;;;;;;13.95;44.33;102195.84;4933047;28;20106;-63
2023/04/09 05:11:32;;;;;;;28.60;12.68;;;;;;;13.93;43.34;102192.38;4948047;28;20454;-64
2023/04/09 05:13:58;;;;;;;22.92;10.50;;;;;;;13.92;43.84;102188.00;4916400;28;20450;-64
2023/04/09 05:16:23;;;;;;;19.67;10.85;;;;;;;13.90;43.97;102189.94;4901239;29;20028;-63
2023/04/09 05:18:49;;;;;;;23.45;10.25;;;;;;;13.87;43.17;102189.31;4916264;28;20119;-64
2023/04/09 05:21:15;;;;;;;23.67;9.82;;;;;;;13.83;43.98;102183.31;4916042;29;20507;-63
2023/04/09 05:23:41;;;;;;;19.20;9.90;;;;;;;13.84;43.78;102185.03;4931728;28;20032;-64
2023/04/09 05:26:07;;;;;;;23.17;12.27;;;;;;;13.87;43.81;102186.63;4900547;29;20126;-64
2023/04/09 05:28:32;;;;;;;21.23;11.07;;;;;;;13.88;43.85;102185.63;4931543;28;20031;-64
2023/04/09 05:30:57;;;;;;;23.25;11.05;;;;;;;13.92;44.14;102179.06;4931989;28;20036;-64
2023/04/09 05:33:23;;;;;;;22.90;11.45;;;;;;;13.95;43.44;102182.38;4915742;28;20032;-64
2023/04/09 05:35:48;;;;;;;17.65;10.38;;;;;;;14.01;43.48;102183.75;4900009;28;20122;-63
2023/04/09 05:38:13;;;;;;;23.15;11.38;;;;;;;14.06;44.40;102178.84;4947645;28;20028;-64
2023/04/09 05:40:39;;;;;;;28.73;11.82;;;;;;;14.14;43.18;102178.25;4916001;28;20031;-61
2023/04/09 05:43:05;;;;;;;26.20;12.23;;;;;;;14.23;43.33;102170.31;4932154;29;20035;-64
2023/04/09 05:45:30;;;;;;;27.67;12.65;;;;;;;14.32;43.74;102175.00;4931669;28;20035;-64
2023/04/09 05:47:56;;;;;;;29.55;13.18;;;;;;;14.43;44.17;102171.47;4931395;29;20037;-61
2023/04/09 05:50:21;;;;;;;30.45;13.70;;;;;;;14.54;44.23;102174.19;4947434;28;20047;-64
2023/04/09 05:52:47;;;;;;;28.90;14.20;;;;;;;14.65;44.08;102176.03;4932894;28;20042;-61
2023/04/09 05:55:12;;;;;;;27.27;14.20;;;;;;;14.74;44.78;102173.44;4932704;29;20091;-61
2023/04/09 05:57:37;;;;;;;28.88;13.52;;;;;;;14.87;44.49;102171.47;4931324;28;20048;-61
2023/04/09 06:00:03;;;;;;;28.05;13.05;;;;;;;15.00;44.56;102182.13;4915660;29;20521;-61
2023/04/09 06:02:29;;;;;;;30.73;13.38;;;;;;;15.13;43.42;102177.47;4931340;28;20047;-62
2023/04/09 06:04:54;;;;;;;26.88;13.55;;;;;;;15.26;44.69;102183.56;4931288;28;20043;-62
2023/04/09 06:07:20;;;;;;;32.42;14.85;;;;;;;15.39;44.51;102186.97;4931661;29;20035;-62
2023/04/09 06:09:46;;;;;;;27.92;14.35;;;;;;;15.52;44.27;102176.88;4931267;28;20043;-62
2023/04/09 06:12:12;;;;;;;26.65;14.55;;;;;;;15.66;43.60;102176.56;4934319;28;20063;-62
2023/04/09 06:14:37;;;;;;;31.42;14.15;;;;;;;15.80;43.71;102178.13;4950598;28;20051;-62
2023/04/09 06:17:03;;;;;;;26.50;14.77;;;;;;;15.92;44.46;102173.50;4934728;28;20435;-62
2023/04/09 06:19:29;;;;;;;34.08;14.95;;;;;;;16.01;42.98;102176.31;4935509;28;20031;-62
2023/04/09 06:21:54;;;;;;;27.10;14.13;;;;;;;16.17;43.58;102181.22;4950368;28;20038;-62
2023/04/09 06:24:20;;;;;;;29.77;15.00;;;;;;;16.31;44.01;102186.31;4950319;28;20419;-62
2023/04/09 06:26:46;;;;;;;27.48;14.27;;;;;;;16.45;43.18;102185.09;4934391;28;20039;-62
2023/04/09 06:29:11;;;;;;;29.60;14.55;;;;;;;16.59;43.29;102188.34;4934682;28;20042;-62
2023/04/09 06:31:36;;;;;;;31.83;14.00;;;;;;;16.77;43.77;102191.31;4936153;28;20059;-62
2023/04/09 06:34:02;;;;;;;29.17;14.52;;;;;;;16.93;43.43;102190.78;4951268;29;20489;-62
2023/04/09 06:36:29;;;;;;;28.17;14.50;;;;;;;17.09;43.81;102183.84;4934390;29;20050;-62
2023/04/09 06:38:55;;;;;;;29.67;13.77;;;;;;;17.26;43.30;102194.03;4950417;28;20040;-62
2023/04/09 06:41:21;;;;;;;28.23;14.35;;;;;;;17.41;43.17;102197.19;4935517;28;20461;-63
2023/04/09 06:43:47;;;;;;;29.42;15.38;;;;;;;17.55;43.24;102196.81;4902917;28;20040;-62
2023/04/09 06:46:16;;;;;;;28.02;14.43;;;;;;;17.74;42.36;102204.97;4919010;28;20032;-62
2023/04/09 06:48:43;;;;;;;31.70;14.52;;;;;;;17.88;43.09;102196.41;4918975;29;20034;-62
2023/04/09 06:51:09;;;;;;;27.73;14.10;;;;;;;18.08;42.53;102196.41;4903261;28;20031;-62
2023/04/09 06:53:35;;;;;;;32.67;15.50;;;;;;;18.23;42.74;102195.78;4918290;28;20047;-62
2023/04/09 06:56:00;;;;;;;30.30;15.23;;;;;;;18.44;42.24;102199.19;4918926;28;20407;-63
2023/04/09 06:58:26;;;;;;;27.42;14.85;;;;;;;18.62;42.69;102196.59;4935661;29;20038;-63
2023/04/09 07:00:52;;;;;;;29.60;14.98;;;;;;;18.80;42.40;102194.81;4918141;28;20082;-62
2023/04/09 07:03:18;;;;;;;35.53;15.98;;;;;;;18.96;42.85;102202.31;4934499;28;20032;-62
2023/04/09 07:05:43;;;;;;;27.73;15.73;;;;;;;19.12;42.17;102197.94;4919421;28;20050;-62
2023/04/09 07:08:09;;;;;;;35.42;16.23;;;;;;;19.24;42.16;102195.00;4935809;28;20036;-63
2023/04/09 07:10:34;;;;;;;30.88;15.68;;;;;;;19.25;42.41;102191.31;4935624;28;20028;-63
2023/04/09 07:13:00;;;;;;;34.13;15.98;;;;;;;19.39;42.81;102194.41;4950205;29;20028;-62
2023/04/09 07:15:25;;;;;;;26.75;14.82;;;;;;;19.24;43.03;102192.28;4933817;28;20036;-63
2023/04/09 07:17:51;;;;;;;26.27;14.80;;;;;;;19.18;42.27;102196.47;4918195;29;20032;-62
2023/04/09 07:20:16;;;;;;;28.30;15.13;;;;;;;19.09;42.37;102206.41;4917686;28;20406;-62
2023/04/09 07:22:42;;;;;;;32.50;15.45;;;;;;;18.98;42.37;102203.88;4948987;28;20047;-62
2023/04/09 07:25:07;;;;;;;32.08;16.60;;;;;;;18.94;43.30;102212.47;4918036;29;20027;-62
2023/04/09 07:27:33;;;;;;;36.95;15.68;;;;;;;18.89;42.81;102209.34;4933237;28;20042;-62
2023/04/09 07:29:59;;;;;;;25.05;15.05;;;;;;;18.87;42.76;102214.09;4933409;28;20115;-63
2023/04/09 07:32:26;;;;;;;29.85;15.15;;;;;;;18.90;42.79;102214.63;4901610;29;20055;-62
2023/04/09 07:34:52;;;;;;;29.45;15.80;;;;;;;19.00;42.78;102222.75;4949172;28;20043;-64
2023/04/09 07:37:18;;;;;;;29.55;14.68;;;;;;;18.97;42.64;102223.91;4917814;29;20030;-63
2023/04/09 07:39:43;;;;;;;28.42;15.63;;;;;;;19.05;42.32;102226.72;4948775;28;20415;-63
2023/04/09 07:42:09;;;;;;;31.40;14.18;;;;;;;19.23;42.15;102218.63;4917302;28;20036;-63
2023/04/09 07:44:38;;;;;;;31.00;15.52;;;;;;;19.39;42.39;102216.13;4934408;28;20036;-63
2023/04/09 07:47:04;;;;;;;27.63;15.85;;;;;;;19.40;41.78;102214.28;4946821;28;20084;-63
2023/04/09 07:49:30;;;;;;;37.65;16.50;;;;;;;19.58;42.15;102223.31;4932804;28;20456;-64
2023/04/09 07:51:56;;;;;;;33.63;17.45;;;;;;;19.81;41.53;102212.84;4951973;29;20097;-63
2023/04/09 07:54:21;;;;;;;34.40;16.65;;;;;;;19.83;42.02;102217.09;4920368;28;20043;-63
2023/04/09 07:56:47;;;;;;;33.72;16.60;;;;;;;19.81;42.04;102218.28;4951669;28;20051;-63
2023/04/09 07:59:14;;;;;;;36.00;15.98;;;;;;;19.83;41.98;102218.97;4920003;28;20047;-63
2023/04/09 08:01:40;;;;;;;33.60;16.15;;;;;;;19.85;41.80;102209.63;4967782;28;20106;-63
2023/04/09 08:04:06;;;;;;;31.13;15.85;;;;;;;20.03;41.32;102213.22;4952044;28;20122;-63
2023/04/09 08:06:31;;;;;;;33.33;17.75;;;;;;;20.25;41.62;102214.63;4951964;28;20115;-63
2023/04/09 08:08:57;;;;;;;30.83;16.77;;;;;;;20.35;41.83;102212.66;4951273;28;20035;-63
2023/04/09 08:11:24;;;;;;;32.92;15.90;;;;;;;20.76;40.93;102211.91;4960736;28;20036;-62
2023/04/09 08:13:53;;;;;;;31.35;16.15;;;;;;;21.21;40.53;102206.22;4942716;28;20043;-63
2023/04/09 08:16:23;;;;;;;28.52;15.75;;;;;;;21.63;40.44;102210.75;4954399;28;20057;-63
2023/04/09 08:18:52;;;;;;;34.38;17.33;;;;;;;22.01;40.02;102215.59;4952136;28;20043;-63
2023/04/09 08:21:18;;;;;;;31.60;15.73;;;;;;;22.39;39.61;102214.91;4952906;28;20042;-63
2023/04/09 08:23:43;;;;;;;37.08;17.63;;;;;;;22.75;39.49;102209.94;4951828;28;20036;-63
2023/04/09 08:26:09;;;;;;;33.92;16.30;;;;;;;23.09;39.21;102198.69;4951598;28;20407;-63
2023/04/09 08:28:34;;;;;;;28.42;16.23;;;;;;;23.39;38.49;102203.38;4943455;28;20032;-63
2023/04/09 08:30:59;;;;;;;26.85;15.23;;;;;;;23.69;39.46;102207.13;4933801;29;20128;-64
2023/04/09 08:33:25;;;;;;;31.75;15.80;;;;;;;24.00;38.65;102201.59;4931747;28;20119;-64
2023/04/09 08:35:51;;;;;;;29.00;15.85;;;;;;;24.30;38.50;102204.28;4931460;28;20043;-65
2023/04/09 08:38:18;;;;;;;29.83;16.00;;;;;;;24.57;38.13;102200.06;4932042;28;20031;-65
2023/04/09 08:40:43;;;;;;;28.45;15.88;;;;;;;24.83;37.77;102194.16;4932424;28;20032;-64
2023/04/09 08:43:09;;;;;;;28.00;14.95;;;;;;;25.05;38.02;102195.94;4932485;28;20024;-64
2023/04/09 08:45:35;;;;;;;29.58;15.43;;;;;;;25.29;37.67;102200.28;4932406;28;20521;-63
2023/04/09 08:48:02;;;;;;;25.92;15.13;;;;;;;25.50;37.76;102199.47;4916590;29;20530;-64
2023/04/09 08:50:32;;;;;;;27.73;13.98;;;;;;;25.73;36.71;102192.78;4932423;28;20115;-64
2023/04/09 08:52:58;;;;;;;24.27;14.13;;;;;;;25.96;36.33;102187.94;4932454;28;20032;-64
2023/04/09 08:55:23;;;;;;;22.95;13.23;;;;;;;26.11;36.16;102182.38;4932849;29;20495;-64
2023/04/09 08:57:49;;;;;;;23.35;13.63;;;;;;;26.29;36.69;102187.41;4915909;28;20044;-64
2023/04/09 09:00:14;;;;;;;21.80;13.38;;;;;;;26.40;35.49;102184.13;4932062;28;20039;-64
2023/04/09 09:03:00;;;;;;;22.50;13.27;;;;;;;26.47;35.58;102180.38;4933206;28;20522;-65
2023/04/09 09:05:39;;;;;;;20.98;12.82;;;;;;;26.42;35.34;102180.13;4932174;29;20119;-64
2023/04/09 09:08:09;;;;;;;20.50;11.27;;;;;;;26.36;35.34;102171.81;4916389;28;20040;-64
2023/04/09 09:10:43;;;;;;;25.00;13.05;;;;;;;26.54;35.07;102173.03;4916242;28;20028;-64
2023/04/09 09:13:19;;;;;;;24.58;13.15;;;;;;;26.71;35.12;102170.81;4901013;28;20031;-64
2023/04/09 09:15:46;;;;;;;23.98;12.52;;;;;;;26.85;34.64;102172.63;4934806;28;20771;-64
2023/04/09 09:18:12;;;;;;;25.73;12.48;;;;;;;26.98;34.75;102167.19;4965104;28;20035;-64
2023/04/09 09:20:37;;;;;;;21.85;13.15;;;;;;;27.13;34.73;102165.13;4950711;28;20058;-65
2023/04/09 09:23:03;;;;;;;26.00;13.52;;;;;;;27.31;34.52;102166.44;4934959;28;20036;-65
2023/04/09 09:25:29;;;;;;;21.02;12.40;;;;;;;27.50;33.73;102168.47;4951212;28;20065;-65
2023/04/09 09:28:06;;;;;;;22.25;12.82;;;;;;;27.67;33.49;102164.25;4952509;28;20130;-66
2023/04/09 09:30:33;;;;;;;23.08;11.57;;;;;;;27.82;33.42;102158.56;4934888;28;20028;-65
2023/04/09 09:33:07;;;;;;;18.80;11.25;;;;;;;28.00;33.37;102156.88;4950754;28;20063;-65
2023/04/09 09:35:53;;;;;;;20.48;11.70;;;;;;;28.15;33.01;102160.31;4952127;28;20035;-65
2023/04/09 09:38:19;;;;;;;18.13;9.90;;;;;;;28.33;33.01;102162.44;4950734;28;20042;-65
2023/04/09 09:40:45;;;;;;;21.38;11.38;;;;;;;28.61;32.62;102160.25;4950714;28;20031;-65
2023/04/09 09:43:12;;;;;;;16.98;9.45;;;;;;;28.95;32.37;102155.53;4919450;28;20043;-66
2023/04/09 09:45:39;;;;;;;14.48;9.43;;;;;;;29.33;31.68;102154.53;4935526;28;20035;-68
2023/04/09 09:48:04;;;;;;;13.43;8.50;;;;;;;29.37;31.70;102144.72;4953960;28;20108;-68
2023/04/09 09:50:31;;;;;;;16.77;9.95;;;;;;;30.22;30.91;102159.88;4953941;28;20534;-68
2023/04/09 09:53:07;;;;;;;16.83;9.68;;;;;;;31.62;28.84;102154.25;4954852;28;20522;-68
2023/04/09 09:55:37;;;;;;;12.60;8.95;;;;;;;32.33;27.89;102136.63;4953498;28;20039;-67
2023/04/09 09:58:10;;;;;;;15.40;9.13;;;;;;;31.65;28.70;102139.91;4938140;28;20038;-68
2023/04/09 10:00:36;;;;;;;14.68;9.13;;;;;;;31.65;29.33;102139.06;4954423;28;20047;-68
2023/04/09 10:03:12;;;;;;;14.43;8.80;;;;;;;31.58;29.09;102127.22;4937666;28;20035;-66
2023/04/09 10:05:38;;;;;;;16.60;9.68;;;;;;;30.51;29.90;102142.59;4953501;28;20059;-65
2023/04/09 10:08:03;;;;;;;16.23;9.43;;;;;;;29.75;30.25;102135.56;4953613;28;20108;-66
2023/04/09 10:10:30;;;;;;;12.95;8.50;;;;;;;29.10;30.38;102134.84;4970492;28;20027;-66
2023/04/09 10:12:55;;;;;;;16.50;8.75;;;;;;;28.60;31.42;102135.63;4922168;28;20626;-66
2023/04/09 10:15:21;;;;;;;15.18;9.30;;;;;;;28.17;30.98;102138.88;4937553;28;20561;-67
2023/04/09 10:17:47;;;;;;;15.75;9.13;;;;;;;27.80;31.38;102134.00;4937578;28;20102;-66
2023/04/09 10:20:25;;;;;;;15.02;9.23;;;;;;;27.45;30.89;102146.19;4921526;28;20089;-64
2023/04/09 10:22:51;;;;;;;17.17;9.85;;;;;;;27.59;31.11;102134.16;4953487;28;20059;-64
2023/04/09 10:25:17;;;;;;;19.20;10.25;;;;;;;28.53;29.77;102140.34;4937793;28;20525;-67
2023/04/09 10:27:45;;;;;;;16.38;9.88;;;;;;;29.26;29.58;102128.84;4937365;28;20043;-66
2023/04/09 10:30:30;;;;;;;16.45;9.95;;;;;;;30.02;28.62;102126.00;4953342;28;20051;-68
2023/04/09 10:33:08;;;;;;;15.25;9.80;;;;;;;30.76;28.92;102127.84;4937265;28;20408;-68
2023/04/09 10:35:33;;;;;;;15.63;9.77;;;;;;;30.75;28.59;102121.47;4953145;28;20035;-67
2023/04/09 10:37:59;;;;;;;16.67;10.02;;;;;;;30.98;28.94;102126.34;4921399;28;20494;-68
2023/04/09 10:40:27;;;;;;;15.35;9.55;;;;;;;30.32;29.75;102115.94;4954635;28;20046;-68
2023/04/09 10:42:54;;;;;;;15.13;9.18;;;;;;;29.64;30.17;102122.47;4954307;28;20035;-65
2023/04/09 10:45:20;;;;;;;17.10;9.43;;;;;;;29.03;30.74;102113.88;4953067;28;20036;-67
2023/04/09 10:47:50;;;;;;;16.35;9.55;;;;;;;28.48;31.00;102121.66;4952945;28;20426;-67
2023/04/09 10:50:18;;;;;;;18.63;9.02;;;;;;;27.97;31.06;102118.75;4937138;28;20483;-65
2023/04/09 10:52:43;;;;;;;14.40;9.02;;;;;;;27.48;30.17;102110.00;4952927;28;20027;-65
2023/04/09 10:55:12;;;;;;;18.00;9.43;;;;;;;27.02;31.24;102118.09;4937274;29;20042;-65
2023/04/09 10:57:38;;;;;;;19.17;9.88;;;;;;;26.63;31.54;102110.50;4951624;28;20514;-65
2023/04/09 11:00:04;;;;;;;19.33;9.98;;;;;;;26.34;31.24;102116.22;4936966;28;20054;-65
2023/04/09 11:02:38;;;;;;;19.90;10.43;;;;;;;26.04;31.55;102121.91;4953224;28;20114;-65
2023/04/09 11:05:32;;;;;;;20.25;10.93;;;;;;;25.81;31.79;102118.53;4952731;28;20448;-65
2023/04/09 11:08:09;;;;;;;15.05;9.80;;;;;;;25.59;31.68;102118.72;4954298;28;20031;-65
2023/04/09 11:10:38;;;;;;;18.27;10.45;;;;;;;25.48;31.72;102116.50;4952912;28;20035;-65